This is the latest recevied weather packets stored in our database for station/object K1TTC. If no packets are shown the sender has not sent any weather packets the latest 10 day(s).
| Time | Temp. | Humidity | Pressure | Rain* | Wind** | Luminosity | Snow |
|---|---|---|---|---|---|---|---|
| 1788185555 | 22.78° C | 46% | 1022.7 hPa | 0 mm | - | 698 W/m² | - |
| 1788184955 | 22.78° C | 45% | 1022.6 hPa | 0 mm | - | 675 W/m² | - |
| 1788184355 | 22.78° C | 47% | 1022.6 hPa | 0 mm | - | 650 W/m² | - |
| 1788183755 | 22.22° C | 47% | 1022.7 hPa | 0 mm | - | 624 W/m² | - |
| 1788183157 | 22.22° C | 48% | 1022.6 hPa | 0 mm | - | 596 W/m² | - |
| 1788182553 | 21.67° C | 51% | 1022.6 hPa | 0 mm | - | 568 W/m² | - |
| 1788181953 | 20.56° C | 53% | 1022.6 hPa | 0 mm | - | 540 W/m² | - |
| 1788181352 | 20° C | 56% | 1022.5 hPa | 0 mm | - | 513 W/m² | - |
| 1788180755 | 18.89° C | 61% | 1022.5 hPa | 0 mm | - | 480 W/m² | - |
| 1788180154 | 17.78° C | 66% | 1022.5 hPa | 0 mm | - | 452 W/m² | - |
| 1788179553 | 16.67° C | 72% | 1022.5 hPa | 0 mm | - | 420 W/m² | - |
| 1788178954 | 16.11° C | 74% | 1022.4 hPa | 0 mm | - | 387 W/m² | - |
| 1788178353 | 16.11° C | 76% | 1022.4 hPa | 0 mm | - | 95 W/m² | - |
| 1788177762 | 16.11° C | 76% | 1022.2 hPa | 0 mm | - | 40 W/m² | - |
| 1788177160 | 15.56° C | 76% | 1022.1 hPa | 0 mm | - | 58 W/m² | - |
| 1788176574 | 15.56° C | 76% | 1022 hPa | 0 mm | - | 35 W/m² | - |
| 1788175958 | 15.56° C | 76% | 1022 hPa | 0 mm | - | 33 W/m² | - |
| 1788175358 | 15° C | 75% | 1022 hPa | 0 mm | - | 33 W/m² | - |
| 1788174758 | 15° C | 75% | 1021.9 hPa | 0 mm | - | 25 W/m² | - |
| 1788174160 | 15° C | 75% | 1021.9 hPa | 0 mm | - | 21 W/m² | - |
| 1788173560 | 15° C | 74% | 1022 hPa | 0 mm | - | 18 W/m² | - |
| 1788172960 | 15° C | 74% | 1021.8 hPa | 0 mm | - | 12 W/m² | - |
| 1788172491 | 15.56° C | 74% | 1021.8 hPa | 0 mm | - | 9 W/m² | - |
| 1788171761 | 15.56° C | 73% | 1021.6 hPa | 0 mm | - | 7 W/m² | - |
| 1788171157 | 15.56° C | 73% | 1021.6 hPa | 0 mm | - | 0 W/m² | - |
* Rain latest hour (hover to see other rain measurements)
** Current wind speed in m/s (hover to see current wind gust speed)